Time;durP1;ratioP1;P1;durP2;ratioP2;P2;SDS_P1;SDS_P2;PMS_P1;PMS_P2;Temp;Humidity;BMP_temperature;BMP_pressure;BME280_temperature;BME280_humidity;BME280_pressure;Samples;Min_cycle;Max_cycle;Signal;HPM_P1;HPM_P2
2023/11/21 00:02:10;;;;;;;;;;;;;;;13.46;nan;100942.38;5040141;28;19917;-86
2023/11/21 00:04:35;;;;;;;;;;;;;;;13.46;nan;100953.13;5039304;28;20376;-86
2023/11/21 00:07:00;;;;;;;;;;;;;;;13.45;nan;100952.31;5039314;28;20024;-85
2023/11/21 00:09:25;;;;;;;;;;;;;;;13.45;nan;100951.53;5039615;28;19925;-86
2023/11/21 00:11:51;;;;;;;;;;;;;;;13.42;nan;100958.25;5035965;28;19952;-86
2023/11/21 00:14:16;;;;;;;;;;;;;;;13.42;nan;100960.13;5037015;28;20582;-86
2023/11/21 00:16:41;;;;;;;;;;;;;;;13.42;nan;100955.56;5039703;28;19925;-85
2023/11/21 00:19:07;;;;;;;;;;;;;;;13.43;nan;100959.06;5039319;28;19960;-86
2023/11/21 00:21:32;;;;;;;;;;;;;;;13.44;nan;100960.66;5039647;28;20013;-85
2023/11/21 00:23:57;;;;;;;;;;;;;;;13.45;nan;100963.09;5037238;28;19923;-85
2023/11/21 00:26:24;;;;;;;;;;;;;;;13.46;nan;100969.28;5041633;28;20296;-86
2023/11/21 00:28:50;;;;;;;;;;;;;;;13.45;nan;100971.16;5039193;28;20003;-85
2023/11/21 00:31:15;;;;;;;;;;;;;;;13.43;nan;100976.00;5038907;28;19995;-85
2023/11/21 00:33:40;;;;;;;;;;;;;;;13.42;nan;100974.38;5043007;28;20443;-86
2023/11/21 00:36:09;;;;;;;;;;;;;;;13.43;nan;100967.94;5036287;28;19924;-86
2023/11/21 00:38:39;;;;;;;;;;;;;;;13.44;nan;100969.56;5038369;28;19917;-85
2023/11/21 00:41:05;;;;;;;;;;;;;;;13.42;nan;100969.00;5041534;28;19917;-86
2023/11/21 00:43:31;;;;;;;;;;;;;;;13.43;nan;100973.31;5041621;28;20577;-86
2023/11/21 00:45:56;;;;;;;;;;;;;;;13.42;nan;100974.38;5038291;28;20360;-86
2023/11/21 00:48:22;;;;;;;;;;;;;;;13.41;nan;100983.53;5038669;28;19979;-86
2023/11/21 00:50:47;;;;;;;;;;;;;;;13.38;nan;100984.06;5024138;28;19925;-86
2023/11/21 00:53:12;;;;;;;;;;;;;;;13.34;nan;100980.28;5040916;28;19917;-86
2023/11/21 00:55:40;;;;;;;;;;;;;;;13.35;nan;100975.72;5038688;28;20549;-86
2023/11/21 00:58:06;;;;;;;;;;;;;;;13.35;nan;100979.22;5038038;28;19955;-86
2023/11/21 01:00:32;;;;;;;;;;;;;;;13.37;nan;100987.81;5039398;28;19972;-86
2023/11/21 01:02:58;;;;;;;;;;;;;;;13.35;nan;100995.34;5037992;28;19916;-86
2023/11/21 01:05:23;;;;;;;;;;;;;;;13.26;nan;100986.94;5038296;28;19921;-85
2023/11/21 01:07:48;;;;;;;;;;;;;;;13.22;nan;100995.81;5040316;28;20433;-86
2023/11/21 01:10:14;;;;;;;;;;;;;;;13.19;nan;100990.94;5039940;28;20471;-86
2023/11/21 01:12:39;;;;;;;;;;;;;;;13.18;nan;100997.41;5034994;28;19959;-86
2023/11/21 01:15:07;;;;;;;;;;;;;;;13.16;nan;101002.19;5033133;28;20008;-86
2023/11/21 01:17:34;;;;;;;;;;;;;;;13.14;nan;100999.78;5035046;28;19925;-85
2023/11/21 01:20:00;;;;;;;;;;;;;;;13.15;nan;100998.69;5038722;28;19916;-86
2023/11/21 01:22:26;;;;;;;;;;;;;;;13.12;nan;101001.91;5037189;28;19917;-86
2023/11/21 01:24:52;;;;;;;;;;;;;;;13.09;nan;101004.28;5038103;28;19929;-86
2023/11/21 01:27:17;;;;;;;;;;;;;;;13.02;nan;101012.59;5037076;28;20266;-86
2023/11/21 01:29:42;;;;;;;;;;;;;;;13.00;nan;101012.84;5039516;28;19928;-86
2023/11/21 01:32:07;;;;;;;;;;;;;;;13.02;nan;101016.09;5038324;28;19923;-87
2023/11/21 01:34:33;;;;;;;;;;;;;;;13.04;nan;101018.50;5040029;28;19917;-86
2023/11/21 01:36:58;;;;;;;;;;;;;;;13.04;nan;101020.41;5038855;28;19979;-86
2023/11/21 01:39:25;;;;;;;;;;;;;;;13.05;nan;101014.75;5042942;28;19916;-86
2023/11/21 01:41:51;;;;;;;;;;;;;;;13.05;nan;101022.00;5040352;28;19952;-85
2023/11/21 01:44:19;;;;;;;;;;;;;;;13.05;nan;101022.00;5036687;28;20020;-86
2023/11/21 01:46:44;;;;;;;;;;;;;;;13.00;nan;101020.09;5040296;28;19925;-86
2023/11/21 01:49:13;;;;;;;;;;;;;;;12.98;nan;101022.25;5040461;28;19956;-85
2023/11/21 01:51:38;;;;;;;;;;;;;;;13.01;nan;101025.22;5040251;28;19921;-86
2023/11/21 01:54:04;;;;;;;;;;;;;;;13.00;nan;101018.22;5041090;28;19931;-86
2023/11/21 01:56:31;;;;;;;;;;;;;;;12.98;nan;101023.06;5040597;28;19916;-86
2023/11/21 01:58:56;;;;;;;;;;;;;;;12.93;nan;101022.22;5040848;28;20035;-86
2023/11/21 02:01:22;;;;;;;;;;;;;;;12.89;nan;101015.69;5044649;28;20541;-85
2023/11/21 02:03:47;;;;;;;;;;;;;;;12.90;nan;101025.38;5041565;28;19920;-86
2023/11/21 02:06:13;;;;;;;;;;;;;;;12.91;nan;101027.81;5040861;28;20405;-86
2023/11/21 02:08:39;;;;;;;;;;;;;;;12.87;nan;101025.91;5039319;28;19920;-86
2023/11/21 02:11:05;;;;;;;;;;;;;;;12.88;nan;101022.97;5039831;28;20018;-86
2023/11/21 02:13:30;;;;;;;;;;;;;;;12.92;nan;101032.13;5042714;28;19920;-87
2023/11/21 02:15:56;;;;;;;;;;;;;;;12.93;nan;101032.97;5039635;28;19925;-86
2023/11/21 02:18:22;;;;;;;;;;;;;;;12.92;nan;101037.50;5041197;28;20373;-86
2023/11/21 02:20:47;;;;;;;;;;;;;;;12.90;nan;101030.75;5038043;28;19917;-85
2023/11/21 02:23:13;;;;;;;;;;;;;;;12.88;nan;101033.72;5037361;28;19923;-86
2023/11/21 02:25:38;;;;;;;;;;;;;;;12.82;nan;101037.44;5041668;28;19929;-85
2023/11/21 02:28:03;;;;;;;;;;;;;;;12.80;nan;101036.06;5041053;28;19921;-86
2023/11/21 02:30:31;;;;;;;;;;;;;;;12.82;nan;101033.94;5040053;28;20262;-86
2023/11/21 02:32:57;;;;;;;;;;;;;;;12.83;nan;101036.38;5044246;28;19931;-86
2023/11/21 02:35:22;;;;;;;;;;;;;;;12.83;nan;101040.94;5040963;28;21637;-85
2023/11/21 02:37:47;;;;;;;;;;;;;;;12.78;nan;101039.03;5037516;28;20019;-85
2023/11/21 02:40:17;;;;;;;;;;;;;;;12.77;nan;101036.59;5043308;28;19925;-85
2023/11/21 02:42:42;;;;;;;;;;;;;;;12.79;nan;101047.91;5040600;28;19925;-85
2023/11/21 02:45:08;;;;;;;;;;;;;;;12.80;nan;101053.03;5038185;28;19921;-86
2023/11/21 02:47:33;;;;;;;;;;;;;;;12.79;nan;101056.78;5041872;28;19952;-86
2023/11/21 02:49:59;;;;;;;;;;;;;;;12.76;nan;101062.66;5044810;28;20845;-86
2023/11/21 02:52:25;;;;;;;;;;;;;;;12.75;nan;101062.91;5042611;28;19970;-85
2023/11/21 02:54:50;;;;;;;;;;;;;;;12.73;nan;101071.22;5040526;28;19929;-86
2023/11/21 02:57:15;;;;;;;;;;;;;;;12.73;nan;101067.72;5043724;28;19978;-86
2023/11/21 02:59:40;;;;;;;;;;;;;;;12.73;nan;101067.72;5041108;28;19935;-85
2023/11/21 03:02:08;;;;;;;;;;;;;;;12.68;nan;101071.19;5040026;28;19932;-86
2023/11/21 03:04:34;;;;;;;;;;;;;;;12.65;nan;101071.69;5040258;28;19929;-85
2023/11/21 03:07:00;;;;;;;;;;;;;;;12.61;nan;101070.56;5040752;28;19943;-86
2023/11/21 03:09:26;;;;;;;;;;;;;;;12.60;nan;101074.34;5043676;28;19925;-85
2023/11/21 03:11:52;;;;;;;;;;;;;;;12.61;nan;101081.31;5039458;28;19925;-86
2023/11/21 03:14:17;;;;;;;;;;;;;;;12.59;nan;101078.91;5044095;28;19917;-85
2023/11/21 03:16:45;;;;;;;;;;;;;;;12.56;nan;101079.38;5038216;28;20333;-86
2023/11/21 03:19:10;;;;;;;;;;;;;;;12.57;nan;101085.59;5041161;28;19921;-86
2023/11/21 03:21:36;;;;;;;;;;;;;;;12.56;nan;101083.94;5039809;28;19991;-85
2023/11/21 03:24:01;;;;;;;;;;;;;;;12.53;nan;101087.94;5039425;28;19921;-85
2023/11/21 03:26:27;;;;;;;;;;;;;;;12.54;nan;101096.81;5039011;28;20427;-85
2023/11/21 03:28:53;;;;;;;;;;;;;;;12.54;nan;101096.81;5041068;28;20356;-85
2023/11/21 03:31:19;;;;;;;;;;;;;;;12.52;nan;101097.09;5041813;28;19924;-86
2023/11/21 03:33:45;;;;;;;;;;;;;;;12.51;nan;101100.03;5037444;28;19921;-86
2023/11/21 03:36:11;;;;;;;;;;;;;;;12.47;nan;101105.09;5021261;28;19916;-86
2023/11/21 03:38:36;;;;;;;;;;;;;;;12.44;nan;101112.84;5039991;28;20507;-85
2023/11/21 03:41:02;;;;;;;;;;;;;;;12.40;nan;101110.69;5043456;28;19932;-86
2023/11/21 03:43:27;;;;;;;;;;;;;;;12.38;nan;101118.16;5040130;28;19924;-85
2023/11/21 03:45:52;;;;;;;;;;;;;;;12.33;nan;101117.28;5033968;28;20338;-85
2023/11/21 03:48:18;;;;;;;;;;;;;;;12.31;nan;101117.53;5038289;28;19925;-86
2023/11/21 03:50:43;;;;;;;;;;;;;;;12.33;nan;101109.22;5042769;28;19923;-84
2023/11/21 03:53:08;;;;;;;;;;;;;;;12.35;nan;101109.78;5039344;28;19953;-86
2023/11/21 03:55:33;;;;;;;;;;;;;;;12.34;nan;101117.03;5039202;28;19917;-86
2023/11/21 03:57:59;;;;;;;;;;;;;;;12.34;nan;101114.34;5042003;28;19916;-86
2023/11/21 04:00:26;;;;;;;;;;;;;;;12.34;nan;101108.16;5038790;28;19960;-86
2023/11/21 04:02:52;;;;;;;;;;;;;;;12.29;nan;101113.47;5042401;28;19967;-86
2023/11/21 04:05:17;;;;;;;;;;;;;;;12.21;nan;101109.38;5035718;28;19920;-86
2023/11/21 04:07:42;;;;;;;;;;;;;;;12.20;nan;101114.97;5041175;28;20729;-85
2023/11/21 04:10:09;;;;;;;;;;;;;;;12.22;nan;101120.94;5037787;28;19952;-86
2023/11/21 04:12:35;;;;;;;;;;;;;;;12.20;nan;101129.22;5039328;28;19927;-85
2023/11/21 04:15:00;;;;;;;;;;;;;;;12.20;nan;101128.41;5041847;28;19917;-86
2023/11/21 04:17:25;;;;;;;;;;;;;;;12.21;nan;101135.41;5033925;28;19924;-86
2023/11/21 04:19:50;;;;;;;;;;;;;;;12.19;nan;101138.34;5040562;28;19979;-86
2023/11/21 04:22:16;;;;;;;;;;;;;;;12.14;nan;101143.66;5040044;28;19980;-86
2023/11/21 04:24:41;;;;;;;;;;;;;;;12.13;nan;101149.28;5037703;28;20381;-86
2023/11/21 04:27:06;;;;;;;;;;;;;;;12.13;nan;101150.06;5036432;28;19921;-85
2023/11/21 04:29:32;;;;;;;;;;;;;;;12.12;nan;101153.81;5038090;28;19921;-86
2023/11/21 04:31:57;;;;;;;;;;;;;;;12.12;nan;101159.19;5038120;28;19978;-86
2023/11/21 04:34:22;;;;;;;;;;;;;;;12.07;nan;101168.00;5036768;28;19921;-86
2023/11/21 04:36:48;;;;;;;;;;;;;;;12.01;nan;101160.09;5040560;28;20964;-86
2023/11/21 04:39:13;;;;;;;;;;;;;;;11.98;nan;101165.97;5040143;28;20407;-86
2023/11/21 04:41:39;;;;;;;;;;;;;;;12.01;nan;101170.84;5041440;28;19917;-86
2023/11/21 04:44:05;;;;;;;;;;;;;;;12.00;nan;101177.28;5036191;28;19920;-86
2023/11/21 04:46:31;;;;;;;;;;;;;;;12.01;nan;101178.91;5037859;28;20017;-85
2023/11/21 04:48:56;;;;;;;;;;;;;;;12.03;nan;101174.13;5040148;28;19999;-86
2023/11/21 04:51:21;;;;;;;;;;;;;;;12.06;nan;101173.63;5038287;28;20007;-86
2023/11/21 04:53:46;;;;;;;;;;;;;;;12.04;nan;101178.44;5041581;28;20320;-85
2023/11/21 04:56:12;;;;;;;;;;;;;;;12.03;nan;101179.50;5038630;28;19957;-86
2023/11/21 04:58:39;;;;;;;;;;;;;;;12.01;nan;101181.59;5040307;28;19917;-86
2023/11/21 05:01:05;;;;;;;;;;;;;;;12.01;nan;101192.34;5040534;28;19921;-85
2023/11/21 05:03:30;;;;;;;;;;;;;;;12.04;nan;101199.94;5040590;28;20399;-85
2023/11/21 05:05:55;;;;;;;;;;;;;;;12.05;nan;101198.88;5037576;28;19936;-85
2023/11/21 05:08:22;;;;;;;;;;;;;;;12.04;nan;101213.34;5042980;28;19925;-86
2023/11/21 05:10:48;;;;;;;;;;;;;;;12.03;nan;101203.66;5045891;28;19948;-86
2023/11/21 05:13:17;;;;;;;;;;;;;;;12.02;nan;101204.69;5041783;28;19924;-86
2023/11/21 05:15:42;;;;;;;;;;;;;;;11.99;nan;101207.88;5035631;28;19925;-86
2023/11/21 05:18:08;;;;;;;;;;;;;;;11.96;nan;101219.13;5038324;28;19917;-86
2023/11/21 05:20:33;;;;;;;;;;;;;;;11.95;nan;101222.88;5040005;28;19917;-85
2023/11/21 05:22:58;;;;;;;;;;;;;;;11.89;nan;101223.84;5042493;28;19935;-86
2023/11/21 05:25:24;;;;;;;;;;;;;;;11.88;nan;101222.22;5040480;28;19951;-85
2023/11/21 05:27:49;;;;;;;;;;;;;;;11.86;nan;101233.22;5039172;28;19988;-86
2023/11/21 05:30:14;;;;;;;;;;;;;;;11.85;nan;101228.91;5038215;28;19959;-86
2023/11/21 05:32:42;;;;;;;;;;;;;;;11.80;nan;101237.69;5037154;28;19917;-85
2023/11/21 05:35:11;;;;;;;;;;;;;;;11.76;nan;101238.38;5041544;28;19968;-85
2023/11/21 05:37:38;;;;;;;;;;;;;;;11.75;nan;101252.88;5038555;28;19920;-85
2023/11/21 05:40:05;;;;;;;;;;;;;;;11.75;nan;101244.81;5042569;28;19921;-86
2023/11/21 05:42:31;;;;;;;;;;;;;;;11.75;nan;101245.63;5038221;28;19951;-86
2023/11/21 05:44:59;;;;;;;;;;;;;;;11.77;nan;101250.75;5035658;28;19936;-85
2023/11/21 05:47:26;;;;;;;;;;;;;;;11.73;nan;101253.09;5044086;28;20059;-86
2023/11/21 05:49:51;;;;;;;;;;;;;;;11.72;nan;101261.41;5037129;28;19925;-85
2023/11/21 05:52:17;;;;;;;;;;;;;;;11.69;nan;101268.09;5037663;28;20433;-86
2023/11/21 05:54:42;;;;;;;;;;;;;;;11.68;nan;101266.44;5039259;28;20096;-84
2023/11/21 05:57:08;;;;;;;;;;;;;;;11.68;nan;101266.44;5040983;28;20814;-86
2023/11/21 05:59:34;;;;;;;;;;;;;;;11.68;nan;101266.44;5040383;28;19924;-86
2023/11/21 06:01:59;;;;;;;;;;;;;;;11.64;nan;101276.03;5040720;28;20010;-85
2023/11/21 06:04:24;;;;;;;;;;;;;;;11.59;nan;101275.13;5038243;28;19948;-86
2023/11/21 06:06:51;;;;;;;;;;;;;;;11.57;nan;101280.75;5037731;28;20605;-85
2023/11/21 06:09:16;;;;;;;;;;;;;;;11.54;nan;101278.53;5039378;28;21699;-86
2023/11/21 06:11:42;;;;;;;;;;;;;;;11.50;nan;101290.81;5039964;28;19916;-85
2023/11/21 06:14:09;;;;;;;;;;;;;;;11.51;nan;101292.44;5037408;28;19921;-86
2023/11/21 06:16:34;;;;;;;;;;;;;;;11.53;nan;101292.22;5039609;28;19924;-86
2023/11/21 06:19:00;;;;;;;;;;;;;;;11.53;nan;101301.06;5040336;28;20384;-86
2023/11/21 06:21:25;;;;;;;;;;;;;;;11.55;nan;101304.31;5040475;28;19916;-86
2023/11/21 06:23:52;;;;;;;;;;;;;;;11.54;nan;101308.06;5039054;28;20397;-86
2023/11/21 06:26:18;;;;;;;;;;;;;;;11.53;nan;101321.72;5038873;28;19928;-86
2023/11/21 06:28:43;;;;;;;;;;;;;;;11.52;nan;101320.91;5038858;28;20320;-86
2023/11/21 06:31:10;;;;;;;;;;;;;;;11.50;nan;101326.53;5039713;28;20007;-86
2023/11/21 06:33:35;;;;;;;;;;;;;;;11.53;nan;101337.81;5036559;28;19932;-86
2023/11/21 06:36:04;;;;;;;;;;;;;;;11.54;nan;101334.09;5038968;28;19917;-86
2023/11/21 06:38:32;;;;;;;;;;;;;;;11.50;nan;101336.44;5041061;28;20530;-86
2023/11/21 06:40:58;;;;;;;;;;;;;;;11.48;nan;101347.38;5040387;28;19921;-86
2023/11/21 06:43:23;;;;;;;;;;;;;;;11.43;nan;101341.94;5041840;28;19917;-86
2023/11/21 06:45:48;;;;;;;;;;;;;;;11.43;nan;101355.34;5037971;28;20022;-86
2023/11/21 06:48:14;;;;;;;;;;;;;;;11.42;nan;101352.91;5040345;28;20035;-86
2023/11/21 06:50:40;;;;;;;;;;;;;;;11.41;nan;101353.97;5039022;28;20011;-86
2023/11/21 06:53:07;;;;;;;;;;;;;;;11.39;nan;101356.06;5039261;28;19925;-85
2023/11/21 06:55:32;;;;;;;;;;;;;;;11.40;nan;101361.19;5038708;28;19925;-86
2023/11/21 06:57:59;;;;;;;;;;;;;;;11.44;nan;101366.91;5042392;28;19967;-86
2023/11/21 07:00:25;;;;;;;;;;;;;;;11.43;nan;101367.94;5041074;28;19919;-86
2023/11/21 07:02:50;;;;;;;;;;;;;;;11.42;nan;101361.78;5040941;28;20425;-86
2023/11/21 07:05:20;;;;;;;;;;;;;;;11.38;nan;101368.66;5040745;28;20385;-87
2023/11/21 07:07:45;;;;;;;;;;;;;;;11.38;nan;101374.03;5038940;28;19917;-86
2023/11/21 07:10:11;;;;;;;;;;;;;;;11.34;nan;101370.22;5042927;28;19931;-85
2023/11/21 07:12:36;;;;;;;;;;;;;;;11.33;nan;101370.44;5041960;28;19917;-86
2023/11/21 07:15:02;;;;;;;;;;;;;;;11.32;nan;101375.00;5039965;28;19939;-85
2023/11/21 07:17:27;;;;;;;;;;;;;;;11.34;nan;101383.63;5040822;28;20372;-85
2023/11/21 07:19:53;;;;;;;;;;;;;;;11.30;nan;101381.63;5038776;28;19948;-86
2023/11/21 07:22:21;;;;;;;;;;;;;;;11.29;nan;101385.38;5040844;28;19927;-86
2023/11/21 07:24:52;;;;;;;;;;;;;;;11.29;nan;101380.81;5041281;28;19948;-86
2023/11/21 07:27:18;;;;;;;;;;;;;;;11.31;nan;101388.63;5023398;28;19923;-86
2023/11/21 07:29:43;;;;;;;;;;;;;;;11.33;nan;101387.34;5040362;28;20003;-86
2023/11/21 07:32:13;;;;;;;;;;;;;;;11.34;nan;101391.66;5041433;28;19924;-86
2023/11/21 07:34:38;;;;;;;;;;;;;;;11.39;nan;101399.00;5041298;28;19923;-85
2023/11/21 07:37:03;;;;;;;;;;;;;;;11.40;nan;101398.75;5042185;28;20019;-86
2023/11/21 07:39:30;;;;;;;;;;;;;;;11.39;nan;101396.31;5040903;28;19925;-85
2023/11/21 07:41:56;;;;;;;;;;;;;;;11.39;nan;101401.69;5041487;28;19927;-86
2023/11/21 07:44:21;;;;;;;;;;;;;;;11.43;nan;101400.16;5039257;28;19917;-85
2023/11/21 07:46:47;;;;;;;;;;;;;;;11.43;nan;101406.34;5038795;28;19932;-86
2023/11/21 07:49:17;;;;;;;;;;;;;;;11.40;nan;101404.13;5041466;28;19944;-85
2023/11/21 07:51:43;;;;;;;;;;;;;;;11.40;nan;101400.63;5040049;28;20515;-85
2023/11/21 07:54:09;;;;;;;;;;;;;;;11.40;nan;101403.31;5041664;28;19925;-86
2023/11/21 07:56:34;;;;;;;;;;;;;;;11.38;nan;101408.91;5041334;28;19964;-84
2023/11/21 07:58:59;;;;;;;;;;;;;;;11.38;nan;101405.41;5039667;28;20368;-85
2023/11/21 08:01:25;;;;;;;;;;;;;;;11.37;nan;101404.59;5039168;28;19916;-85
2023/11/21 08:03:52;;;;;;;;;;;;;;;11.37;nan;101422.56;5038465;28;19975;-86
2023/11/21 08:06:17;;;;;;;;;;;;;;;11.40;nan;101425.59;5041831;28;20423;-86
2023/11/21 08:08:43;;;;;;;;;;;;;;;11.43;nan;101435.84;5042236;28;19921;-86
2023/11/21 08:11:10;;;;;;;;;;;;;;;11.46;nan;101435.38;5040756;28;20466;-86
2023/11/21 08:13:35;;;;;;;;;;;;;;;11.46;nan;101435.38;5039545;28;19925;-85
2023/11/21 08:16:03;;;;;;;;;;;;;;;11.45;nan;101430.25;5041170;28;19928;-86
2023/11/21 08:18:29;;;;;;;;;;;;;;;11.42;nan;101442.25;5039392;28;19928;-85
2023/11/21 08:20:55;;;;;;;;;;;;;;;11.37;nan;101449.41;5038038;28;20448;-86
2023/11/21 08:23:20;;;;;;;;;;;;;;;11.36;nan;101453.94;5038967;28;20008;-85
2023/11/21 08:25:46;;;;;;;;;;;;;;;11.39;nan;101455.34;5037687;28;19924;-85
2023/11/21 08:28:12;;;;;;;;;;;;;;;11.42;nan;101460.22;5037235;28;19917;-85
2023/11/21 08:30:37;;;;;;;;;;;;;;;11.45;nan;101454.38;5036279;28;19925;-86
2023/11/21 08:33:03;;;;;;;;;;;;;;;11.45;nan;101457.06;5036519;28;20015;-85
2023/11/21 08:35:29;;;;;;;;;;;;;;;11.44;nan;101464.31;5039945;28;19920;-85
2023/11/21 08:37:54;;;;;;;;;;;;;;;11.43;nan;101453.81;5037102;28;19956;-86
2023/11/21 08:40:21;;;;;;;;;;;;;;;11.43;nan;101454.63;5040233;28;19971;-86
2023/11/21 08:42:46;;;;;;;;;;;;;;;11.45;nan;101459.75;5040653;28;20000;-85
2023/11/21 08:45:12;;;;;;;;;;;;;;;11.45;nan;101462.44;5030216;28;20023;-86
2023/11/21 08:47:38;;;;;;;;;;;;;;;11.44;nan;101467.00;5043747;28;19920;-86
2023/11/21 08:50:06;;;;;;;;;;;;;;;11.42;nan;101473.66;5040449;28;19945;-86
2023/11/21 08:52:31;;;;;;;;;;;;;;;11.38;nan;101485.91;5044310;28;20231;-86
2023/11/21 08:54:56;;;;;;;;;;;;;;;11.36;nan;101494.19;5043189;28;19971;-85
2023/11/21 08:57:22;;;;;;;;;;;;;;;11.35;nan;101487.19;5043251;28;19921;-85
2023/11/21 08:59:48;;;;;;;;;;;;;;;11.38;nan;101504.69;5041821;28;20560;-85
2023/11/21 09:02:13;;;;;;;;;;;;;;;11.38;nan;101513.56;5042873;28;19943;-85
2023/11/21 09:04:38;;;;;;;;;;;;;;;11.40;nan;101518.69;5043088;28;19970;-86
2023/11/21 09:07:04;;;;;;;;;;;;;;;11.41;nan;101517.63;5040883;28;19925;-85
2023/11/21 09:09:29;;;;;;;;;;;;;;;11.43;nan;101518.22;5027150;28;20336;-86
2023/11/21 09:11:55;;;;;;;;;;;;;;;11.42;nan;101521.94;5041327;28;19948;-85
2023/11/21 09:14:20;;;;;;;;;;;;;;;11.37;nan;101528.03;5040955;28;19917;-86
2023/11/21 09:16:46;;;;;;;;;;;;;;;11.36;nan;101537.13;5038442;28;19968;-85
2023/11/21 09:19:14;;;;;;;;;;;;;;;11.35;nan;101538.19;5045581;28;19963;-85
2023/11/21 09:21:39;;;;;;;;;;;;;;;11.29;nan;101539.09;5041290;28;19925;-85
2023/11/21 09:24:05;;;;;;;;;;;;;;;11.30;nan;101542.59;5041687;28;19973;-86
2023/11/21 09:26:30;;;;;;;;;;;;;;;11.33;nan;101539.47;5040679;28;19925;-85
2023/11/21 09:28:56;;;;;;;;;;;;;;;11.35;nan;101540.88;5044350;28;19950;-86
2023/11/21 09:31:22;;;;;;;;;;;;;;;11.35;nan;101540.03;5041529;28;19927;-85
2023/11/21 09:33:48;;;;;;;;;;;;;;;11.37;nan;101540.63;5043455;28;19920;-86
2023/11/21 09:36:14;;;;;;;;;;;;;;;11.38;nan;101550.31;5040353;28;19917;-85
2023/11/21 09:38:39;;;;;;;;;;;;;;;11.38;nan;101555.66;5040153;28;19953;-85
2023/11/21 09:41:11;;;;;;;;;;;;;;;11.36;nan;101563.94;5038986;28;19956;-85
2023/11/21 09:43:38;;;;;;;;;;;;;;;11.35;nan;101566.88;5041431;28;19917;-84
2023/11/21 09:46:06;;;;;;;;;;;;;;;11.33;nan;101568.97;5035697;28;19928;-86
2023/11/21 09:48:32;;;;;;;;;;;;;;;11.31;nan;101574.56;5038914;28;19921;-85
2023/11/21 09:50:59;;;;;;;;;;;;;;;11.28;nan;101577.69;5038573;28;19924;-86
2023/11/21 09:53:27;;;;;;;;;;;;;;;11.27;nan;101583.31;5038751;28;19924;-86
2023/11/21 09:55:53;;;;;;;;;;;;;;;11.25;nan;101574.66;5040190;28;19927;-85
2023/11/21 09:58:19;;;;;;;;;;;;;;;11.25;nan;101585.41;5038589;28;19979;-86
2023/11/21 10:00:46;;;;;;;;;;;;;;;11.28;nan;101585.75;5040620;28;20389;-87
2023/11/21 10:03:12;;;;;;;;;;;;;;;11.29;nan;101590.06;5042347;28;19967;-85
2023/11/21 10:05:38;;;;;;;;;;;;;;;11.27;nan;101585.97;5041397;28;19922;-86
2023/11/21 10:08:07;;;;;;;;;;;;;;;11.25;nan;101580.03;5039759;28;19932;-85
2023/11/21 10:10:33;;;;;;;;;;;;;;;11.23;nan;101582.13;5040904;28;20023;-87
2023/11/21 10:13:01;;;;;;;;;;;;;;;11.23;nan;101587.50;5035672;28;20409;-85
2023/11/21 10:15:27;;;;;;;;;;;;;;;11.23;nan;101582.13;5042025;28;19916;-86
2023/11/21 10:17:53;;;;;;;;;;;;;;;11.22;nan;101599.28;5037841;28;19921;-85
2023/11/21 10:20:19;;;;;;;;;;;;;;;11.20;nan;101597.66;5043101;28;19924;-86
2023/11/21 10:22:44;;;;;;;;;;;;;;;11.20;nan;101596.84;5027475;28;19917;-85
2023/11/21 10:25:10;;;;;;;;;;;;;;;11.17;nan;101597.28;5034691;28;19940;-85
2023/11/21 10:27:39;;;;;;;;;;;;;;;11.13;nan;101596.94;5039747;28;19921;-86
2023/11/21 10:30:05;;;;;;;;;;;;;;;11.11;nan;101593.66;5039904;28;19956;-85
2023/11/21 10:32:32;;;;;;;;;;;;;;;11.14;nan;101597.75;5039804;28;20792;-85
2023/11/21 10:34:59;;;;;;;;;;;;;;;11.15;nan;101599.41;5037009;28;19916;-86
2023/11/21 10:37:25;;;;;;;;;;;;;;;11.15;nan;101599.41;5039035;28;19917;-86
2023/11/21 10:39:50;;;;;;;;;;;;;;;11.13;nan;101605.00;5038335;28;20378;-85
2023/11/21 10:42:17;;;;;;;;;;;;;;;11.08;nan;101599.47;5041494;28;19921;-86
2023/11/21 10:44:44;;;;;;;;;;;;;;;11.05;nan;101599.94;5040433;28;19925;-86
2023/11/21 10:47:11;;;;;;;;;;;;;;;11.04;nan;101614.41;5038657;28;19983;-86
2023/11/21 10:49:37;;;;;;;;;;;;;;;11.01;nan;101619.41;5039906;28;20440;-86
2023/11/21 10:52:03;;;;;;;;;;;;;;;10.98;nan;101623.38;5040246;28;20008;-86
2023/11/21 10:54:29;;;;;;;;;;;;;;;10.98;nan;101630.59;5037704;28;19928;-86
2023/11/21 10:56:58;;;;;;;;;;;;;;;11.02;nan;101645.19;5040451;28;20016;-86
2023/11/21 10:59:26;;;;;;;;;;;;;;;11.02;nan;101642.50;5040376;28;19999;-86
2023/11/21 11:01:52;;;;;;;;;;;;;;;10.98;nan;101636.78;5039959;28;19927;-86
2023/11/21 11:04:18;;;;;;;;;;;;;;;10.92;nan;101648.41;5043400;28;19924;-86
2023/11/21 11:06:44;;;;;;;;;;;;;;;10.83;nan;101642.56;5039605;28;19928;-86
2023/11/21 11:09:12;;;;;;;;;;;;;;;10.78;nan;101641.63;5038411;28;19921;-86
2023/11/21 11:11:40;;;;;;;;;;;;;;;10.75;nan;101647.41;5039852;28;19917;-86
2023/11/21 11:14:06;;;;;;;;;;;;;;;10.75;nan;101647.41;5042974;28;21331;-85
2023/11/21 11:16:32;;;;;;;;;;;;;;;10.72;nan;101656.72;5039650;28;20419;-86
2023/11/21 11:18:57;;;;;;;;;;;;;;;10.72;nan;101661.28;5038291;28;19917;-86
2023/11/21 11:21:22;;;;;;;;;;;;;;;10.74;nan;101659.19;5040109;28;19971;-85
2023/11/21 11:24:24;;;;;;;;;;;;;;;10.71;nan;101671.19;5041563;28;19924;-86
2023/11/21 11:27:18;;;;;;;;;;;;;;;10.63;nan;101673.38;4965733;28;19926;-86
2023/11/21 11:29:53;;;;;;;;;;;;;;;10.58;nan;101674.84;5041731;28;19921;-85
2023/11/21 11:32:21;;;;;;;;;;;;;;;10.58;nan;101676.69;5038494;28;19921;-86
2023/11/21 11:34:50;;;;;;;;;;;;;;;10.62;nan;101685.13;5037770;28;19931;-86
2023/11/21 11:37:16;;;;;;;;;;;;;;;10.63;nan;101684.09;5039202;28;19917;-85
2023/11/21 11:39:43;;;;;;;;;;;;;;;10.62;nan;101677.91;5038980;28;19928;-87
2023/11/21 11:42:11;;;;;;;;;;;;;;;10.63;nan;101684.91;5038667;28;19921;-86
2023/11/21 11:44:46;;;;;;;;;;;;;;;10.62;nan;101685.13;5036314;28;19924;-86
2023/11/21 11:47:28;;;;;;;;;;;;;;;10.61;nan;101692.34;5037893;28;19925;-86
2023/11/21 11:50:13;;;;;;;;;;;;;;;10.57;nan;101694.63;5036550;28;19921;-85
2023/11/21 11:52:45;;;;;;;;;;;;;;;10.56;nan;101701.03;5040875;28;19920;-86
2023/11/21 11:55:13;;;;;;;;;;;;;;;10.60;nan;101706.78;5040883;28;19940;-85
2023/11/21 11:57:38;;;;;;;;;;;;;;;10.62;nan;101702.03;5038425;28;19917;-86
2023/11/21 12:00:19;;;;;;;;;;;;;;;10.61;nan;101700.38;5040014;28;19921;-85
2023/11/21 12:02:45;;;;;;;;;;;;;;;10.60;nan;101714.84;5035012;28;19917;-85
2023/11/21 12:05:13;;;;;;;;;;;;;;;10.63;nan;101714.38;5041790;28;19931;-86
2023/11/21 12:07:45;;;;;;;;;;;;;;;10.66;nan;101715.78;5036216;28;20005;-86
2023/11/21 12:10:17;;;;;;;;;;;;;;;10.62;nan;101723.47;5038052;28;20165;-85
2023/11/21 12:12:46;;;;;;;;;;;;;;;10.59;nan;101729.25;5034329;28;19924;-86
2023/11/21 12:15:12;;;;;;;;;;;;;;;10.54;nan;101727.25;5037301;28;19924;-86
2023/11/21 12:17:38;;;;;;;;;;;;;;;10.52;nan;101732.00;5034091;28;19942;-85
2023/11/21 12:20:05;;;;;;;;;;;;;;;10.53;nan;101733.66;5037039;28;20443;-85
2023/11/21 12:22:32;;;;;;;;;;;;;;;10.54;nan;101737.16;5037537;28;20384;-86
2023/11/21 12:24:58;;;;;;;;;;;;;;;10.57;nan;101737.50;5040984;28;19916;-86
2023/11/21 12:27:23;;;;;;;;;;;;;;;10.59;nan;101738.13;5040081;28;19917;-86
2023/11/21 12:29:48;;;;;;;;;;;;;;;10.59;nan;101740.81;5042664;28;19917;-85
2023/11/21 12:32:17;;;;;;;;;;;;;;;10.62;nan;101749.44;5037538;28;20524;-85
2023/11/21 12:34:43;;;;;;;;;;;;;;;10.62;nan;101752.94;5040271;28;20424;-85
2023/11/21 12:37:08;;;;;;;;;;;;;;;10.63;nan;101751.91;5035568;28;19944;-86
2023/11/21 12:39:33;;;;;;;;;;;;;;;10.64;nan;101755.41;5041265;28;20381;-85
2023/11/21 12:42:00;;;;;;;;;;;;;;;10.63;nan;101764.47;5041340;28;20301;-86
2023/11/21 12:44:25;;;;;;;;;;;;;;;10.58;nan;101773.16;5037595;28;19917;-85
2023/11/21 12:46:52;;;;;;;;;;;;;;;10.55;nan;101773.63;5037229;28;19935;-86
2023/11/21 12:49:18;;;;;;;;;;;;;;;10.53;nan;101781.88;5039173;28;19932;-86
2023/11/21 12:51:45;;;;;;;;;;;;;;;10.51;nan;101780.47;5038548;28;19971;-85
2023/11/21 12:54:12;;;;;;;;;;;;;;;10.50;nan;101781.50;5037025;28;19996;-85